createdAt,value
2017-12-17T00:01:08.539Z,16.47
2017-12-17T00:03:36.859Z,16.50
2017-12-17T00:06:05.315Z,17.17
2017-12-17T00:08:33.633Z,17.10
2017-12-17T00:11:02.908Z,16.50
2017-12-17T00:13:31.224Z,19.97
2017-12-17T00:15:59.663Z,16.53
2017-12-17T00:18:28.011Z,18.67
2017-12-17T00:20:56.326Z,16.10
2017-12-17T00:23:24.643Z,16.37
2017-12-17T00:25:52.975Z,16.67
2017-12-17T00:28:21.555Z,17.93
2017-12-17T00:30:49.958Z,16.10
2017-12-17T00:33:18.334Z,16.67
2017-12-17T00:35:46.678Z,17.80
2017-12-17T00:41:09.268Z,18.53
2017-12-17T00:43:37.655Z,19.83
2017-12-17T00:46:05.995Z,20.63
2017-12-17T00:48:34.330Z,18.10
2017-12-17T00:51:02.932Z,20.57
2017-12-17T00:53:31.248Z,20.37
2017-12-17T00:55:59.599Z,21.60
2017-12-17T00:58:27.955Z,23.17
2017-12-17T01:00:56.298Z,25.10
2017-12-17T01:03:24.628Z,23.23
2017-12-17T01:05:52.982Z,23.73
2017-12-17T01:08:21.333Z,25.03
2017-12-17T01:10:49.680Z,23.43
2017-12-17T01:13:18.469Z,23.10
2017-12-17T01:15:46.762Z,23.37
2017-12-17T01:18:15.292Z,20.30
2017-12-17T01:20:43.595Z,23.77
2017-12-17T01:23:11.964Z,23.07
2017-12-17T01:25:41.235Z,21.00
2017-12-17T01:28:09.621Z,21.20
2017-12-17T01:30:38.451Z,23.17
2017-12-17T01:33:06.780Z,20.97
2017-12-17T01:35:35.130Z,20.57
2017-12-17T01:38:03.432Z,20.93
2017-12-17T01:40:31.765Z,19.10
2017-12-17T01:43:00.090Z,20.00
2017-12-17T01:45:28.479Z,20.67
2017-12-17T01:47:56.838Z,20.03
2017-12-17T01:50:25.145Z,19.33
2017-12-17T01:52:53.461Z,19.30
2017-12-17T01:55:21.810Z,18.60
2017-12-17T01:57:50.146Z,17.60
2017-12-17T02:00:18.502Z,18.80
2017-12-17T02:02:46.815Z,18.97
2017-12-17T02:05:15.230Z,17.57
2017-12-17T02:07:43.555Z,17.97
2017-12-17T02:10:11.892Z,18.30
2017-12-17T02:12:40.217Z,17.00
2017-12-17T02:15:08.557Z,16.10
2017-12-17T02:17:36.921Z,18.57
2017-12-17T02:20:05.306Z,17.40
2017-12-17T02:22:33.624Z,16.87
2017-12-17T02:25:01.944Z,17.00
2017-12-17T02:27:30.301Z,16.60
2017-12-17T02:29:58.642Z,17.63
2017-12-17T02:32:26.980Z,16.40
2017-12-17T02:34:55.312Z,17.90
2017-12-17T02:37:23.655Z,16.17
2017-12-17T02:39:51.978Z,17.20
2017-12-17T02:42:20.389Z,15.50
2017-12-17T02:44:48.700Z,17.43
2017-12-17T02:47:17.012Z,16.30
2017-12-17T02:49:45.401Z,16.57
2017-12-17T02:52:13.720Z,16.33
2017-12-17T02:54:42.070Z,16.03
2017-12-17T02:57:10.402Z,16.80
2017-12-17T02:59:38.756Z,16.20
2017-12-17T03:02:07.084Z,15.37
2017-12-17T03:04:35.405Z,17.20
2017-12-17T03:07:03.756Z,15.10
2017-12-17T03:09:32.076Z,15.90
2017-12-17T03:12:00.404Z,17.93
2017-12-17T03:14:28.724Z,16.73
2017-12-17T03:16:57.046Z,15.50
2017-12-17T03:19:25.390Z,16.47
2017-12-17T03:21:53.696Z,17.77
2017-12-17T03:24:22.033Z,15.13
2017-12-17T03:26:50.365Z,17.23
2017-12-17T03:29:18.731Z,17.07
2017-12-17T03:31:47.049Z,16.87
2017-12-17T03:34:15.473Z,16.53
2017-12-17T03:36:43.804Z,14.53
2017-12-17T03:39:12.229Z,14.87
2017-12-17T03:41:40.592Z,14.73
2017-12-17T03:44:08.928Z,14.70
2017-12-17T03:46:37.256Z,15.20
2017-12-17T03:49:05.618Z,15.90
2017-12-17T03:51:33.948Z,14.57
2017-12-17T03:54:02.637Z,15.87
2017-12-17T03:56:30.976Z,16.33
2017-12-17T03:58:59.280Z,15.00
2017-12-17T04:01:27.632Z,15.87
2017-12-17T04:03:55.934Z,16.20
2017-12-17T04:06:24.282Z,15.03
2017-12-17T04:08:52.613Z,17.00
2017-12-17T04:11:21.002Z,14.90
2017-12-17T04:13:49.320Z,14.57
2017-12-17T04:16:17.676Z,15.80
2017-12-17T04:18:46.016Z,16.03
2017-12-17T04:21:14.684Z,15.97
2017-12-17T04:23:42.994Z,15.67
2017-12-17T04:26:11.315Z,16.20
2017-12-17T04:28:39.633Z,15.43
2017-12-17T04:31:07.963Z,15.67
2017-12-17T04:33:36.275Z,15.93
2017-12-17T04:36:05.068Z,18.17
2017-12-17T04:38:33.391Z,16.83
2017-12-17T04:41:01.711Z,15.47
2017-12-17T04:43:30.021Z,15.13
2017-12-17T04:45:58.354Z,15.40
2017-12-17T04:48:26.714Z,14.90
2017-12-17T04:50:55.060Z,15.23
2017-12-17T04:53:23.383Z,16.67
2017-12-17T04:55:51.721Z,14.90
2017-12-17T04:58:20.027Z,15.53
2017-12-17T05:00:48.448Z,17.10
2017-12-17T05:03:16.883Z,16.43
2017-12-17T05:05:45.205Z,15.53
2017-12-17T05:08:13.555Z,17.27
2017-12-17T05:10:41.876Z,16.70
2017-12-17T05:13:10.181Z,18.13
2017-12-17T05:15:38.500Z,16.60
2017-12-17T05:18:06.827Z,16.57
2017-12-17T05:20:35.192Z,15.00
2017-12-17T05:23:03.508Z,15.40
2017-12-17T05:25:31.960Z,17.70
2017-12-17T05:28:00.290Z,16.97
2017-12-17T05:30:28.596Z,17.80
2017-12-17T05:32:56.945Z,17.30
2017-12-17T05:35:25.294Z,16.47
2017-12-17T05:37:53.951Z,18.53
2017-12-17T05:40:22.254Z,16.93
2017-12-17T05:42:50.568Z,16.70
2017-12-17T05:45:18.933Z,14.97
2017-12-17T05:47:47.265Z,18.60
2017-12-17T05:50:15.708Z,15.93
2017-12-17T05:52:44.249Z,16.03
2017-12-17T05:55:12.551Z,17.67
2017-12-17T05:57:40.916Z,14.80
2017-12-17T06:00:09.725Z,17.07
2017-12-17T06:02:38.040Z,16.73
2017-12-17T06:05:06.417Z,16.17
2017-12-17T06:07:34.741Z,16.80
2017-12-17T06:10:03.061Z,17.87
2017-12-17T06:12:35.114Z,17.00
2017-12-17T06:15:03.452Z,16.00
2017-12-17T06:17:31.769Z,17.20
2017-12-17T06:20:00.096Z,15.30
2017-12-17T06:22:28.411Z,15.13
2017-12-17T06:24:56.777Z,16.73
2017-12-17T06:27:25.087Z,15.13
2017-12-17T06:29:53.436Z,16.50
2017-12-17T06:32:21.864Z,14.70
2017-12-17T06:34:50.229Z,16.80
2017-12-17T06:37:18.563Z,17.40
2017-12-17T06:39:46.895Z,15.97
2017-12-17T06:42:15.212Z,14.50
2017-12-17T06:44:43.580Z,15.50
2017-12-17T06:47:11.891Z,15.60
2017-12-17T06:49:40.200Z,14.57
2017-12-17T06:52:08.536Z,14.43
2017-12-17T06:54:36.854Z,14.93
2017-12-17T06:57:05.299Z,15.10
2017-12-17T06:59:33.646Z,16.00
2017-12-17T07:02:01.974Z,14.57
2017-12-17T07:04:30.342Z,14.90
2017-12-17T07:06:58.699Z,14.43
2017-12-17T07:09:27.015Z,12.90
2017-12-17T07:11:55.335Z,15.70
2017-12-17T07:14:23.662Z,12.30
2017-12-17T07:16:52.000Z,15.17
2017-12-17T07:19:20.469Z,14.50
2017-12-17T07:21:48.801Z,13.67
2017-12-17T07:24:17.143Z,13.77
2017-12-17T07:26:45.493Z,13.87
2017-12-17T07:29:13.832Z,12.50
2017-12-17T07:31:42.149Z,13.27
2017-12-17T07:34:10.504Z,14.40
2017-12-17T07:36:38.837Z,13.10
2017-12-17T07:39:07.166Z,13.50
2017-12-17T07:41:35.829Z,14.10
2017-12-17T07:44:04.151Z,13.80
2017-12-17T07:46:37.948Z,13.47
2017-12-17T07:49:06.290Z,14.20
2017-12-17T07:51:34.607Z,13.50
2017-12-17T07:54:02.957Z,13.50
2017-12-17T07:56:31.299Z,13.60
2017-12-17T07:58:59.657Z,12.33
2017-12-17T08:01:27.975Z,12.10
2017-12-17T08:03:56.467Z,12.80
2017-12-17T08:06:25.486Z,12.57
2017-12-17T08:08:53.940Z,14.07
2017-12-17T08:11:22.364Z,12.33
2017-12-17T08:13:50.711Z,13.47
2017-12-17T08:16:19.064Z,11.70
2017-12-17T08:18:47.384Z,12.47
2017-12-17T08:21:15.760Z,12.23
2017-12-17T08:23:44.107Z,12.80
2017-12-17T08:26:12.431Z,13.30
2017-12-17T08:28:40.773Z,12.43
2017-12-17T08:31:09.129Z,12.33
2017-12-17T08:33:37.643Z,10.93
2017-12-17T08:36:05.951Z,12.30
2017-12-17T08:38:34.249Z,10.87
2017-12-17T08:41:02.588Z,11.00
2017-12-17T08:43:30.926Z,11.50
2017-12-17T08:45:59.359Z,12.50
2017-12-17T08:48:27.660Z,11.97
2017-12-17T08:50:55.989Z,11.43
2017-12-17T08:53:24.313Z,12.30
2017-12-17T08:55:52.647Z,10.60
2017-12-17T08:58:20.978Z,10.80
2017-12-17T09:00:49.379Z,11.07
2017-12-17T09:03:17.716Z,9.90
2017-12-17T09:05:46.031Z,11.13
2017-12-17T09:08:14.361Z,10.33
2017-12-17T09:10:43.179Z,10.43
2017-12-17T09:13:11.568Z,9.97
2017-12-17T09:15:40.996Z,10.07
2017-12-17T09:18:09.499Z,9.30
2017-12-17T09:20:37.964Z,10.53
2017-12-17T09:23:06.343Z,8.70
2017-12-17T09:25:34.673Z,9.30
2017-12-17T09:28:03.014Z,9.37
2017-12-17T09:30:31.333Z,9.60
2017-12-17T09:33:00.030Z,10.10
2017-12-17T09:35:28.370Z,8.80
2017-12-17T09:37:56.684Z,8.40
2017-12-17T09:40:25.012Z,9.20
2017-12-17T09:42:59.012Z,10.27
2017-12-17T09:45:27.352Z,10.10
2017-12-17T09:47:56.495Z,7.90
2017-12-17T09:50:24.894Z,9.10
2017-12-17T09:52:53.209Z,8.60
2017-12-17T09:55:21.524Z,9.47
2017-12-17T09:57:49.848Z,9.37
2017-12-17T10:00:18.163Z,9.03
2017-12-17T10:02:46.500Z,8.97
2017-12-17T10:05:14.820Z,9.60
2017-12-17T10:07:43.141Z,9.87
2017-12-17T10:10:11.485Z,10.33
2017-12-17T10:12:39.796Z,10.37
2017-12-17T10:15:08.110Z,8.47
2017-12-17T10:17:36.433Z,9.17
2017-12-17T10:20:04.880Z,10.53
2017-12-17T10:22:34.548Z,9.13
2017-12-17T10:25:02.881Z,9.00
2017-12-17T10:27:31.206Z,9.70
2017-12-17T10:29:59.513Z,9.03
2017-12-17T10:32:27.933Z,9.13
2017-12-17T10:34:57.041Z,9.30
2017-12-17T10:37:25.365Z,10.60
2017-12-17T10:39:54.468Z,10.00
2017-12-17T10:42:22.798Z,10.10
2017-12-17T10:44:51.101Z,10.60
2017-12-17T10:47:19.446Z,10.40
2017-12-17T10:49:47.776Z,11.60
2017-12-17T10:52:16.097Z,12.73
2017-12-17T10:54:44.408Z,10.40
2017-12-17T10:57:12.734Z,12.03
2017-12-17T10:59:41.091Z,12.90
2017-12-17T11:02:09.625Z,11.63
2017-12-17T11:04:37.945Z,11.80
2017-12-17T11:07:06.315Z,11.87
2017-12-17T11:09:36.965Z,10.53
2017-12-17T11:12:05.405Z,9.53
2017-12-17T11:14:33.808Z,9.87
2017-12-17T11:17:02.131Z,10.87
2017-12-17T11:19:30.468Z,10.20
2017-12-17T11:21:58.801Z,11.23
2017-12-17T11:24:27.322Z,10.67
2017-12-17T11:26:55.629Z,11.17
2017-12-17T11:29:23.975Z,10.60
2017-12-17T11:31:52.337Z,11.40
2017-12-17T11:34:20.693Z,9.90
2017-12-17T11:36:49.007Z,9.80
2017-12-17T11:39:17.530Z,11.13
2017-12-17T11:41:46.666Z,10.23
2017-12-17T11:44:14.969Z,8.50
2017-12-17T11:46:43.504Z,9.60
2017-12-17T11:49:11.860Z,9.77
2017-12-17T11:51:40.166Z,9.27
2017-12-17T11:54:08.472Z,9.83
2017-12-17T11:56:36.819Z,8.87
2017-12-17T11:59:05.127Z,7.80
2017-12-17T12:01:33.452Z,8.03
2017-12-17T12:04:01.833Z,8.30
2017-12-17T12:06:30.253Z,8.10
2017-12-17T12:08:58.892Z,8.07
2017-12-17T12:11:29.599Z,8.33
2017-12-17T12:13:58.179Z,8.40
2017-12-17T12:16:26.496Z,6.37
2017-12-17T12:18:54.842Z,6.10
2017-12-17T12:21:23.259Z,7.10
2017-12-17T12:23:51.580Z,6.00
2017-12-17T12:26:19.972Z,7.93
2017-12-17T12:28:48.473Z,6.40
2017-12-17T12:31:16.953Z,7.93
2017-12-17T12:33:45.268Z,7.47
2017-12-17T12:36:13.605Z,7.73
2017-12-17T12:38:41.985Z,7.90
2017-12-17T12:41:10.400Z,7.17
2017-12-17T12:43:38.789Z,6.90
2017-12-17T12:46:07.506Z,7.60
2017-12-17T12:48:35.862Z,7.10
2017-12-17T12:51:04.283Z,7.03
2017-12-17T12:53:32.904Z,7.00
2017-12-17T12:56:01.274Z,6.60
2017-12-17T12:58:29.628Z,8.37
2017-12-17T13:00:58.267Z,8.03
2017-12-17T13:03:26.567Z,8.00
2017-12-17T13:05:54.868Z,6.63
2017-12-17T13:08:23.247Z,8.20
2017-12-17T13:10:51.665Z,6.70
2017-12-17T13:13:20.131Z,7.50
2017-12-17T13:15:48.487Z,8.37
2017-12-17T13:18:16.890Z,7.70
2017-12-17T13:20:45.364Z,6.77
2017-12-17T13:23:13.695Z,6.80
2017-12-17T13:25:42.247Z,8.20
2017-12-17T13:28:10.572Z,6.43
2017-12-17T13:30:38.944Z,8.70
2017-12-17T13:33:07.260Z,7.83
2017-12-17T13:35:35.626Z,7.80
2017-12-17T13:38:04.904Z,8.17
2017-12-17T13:40:33.423Z,7.50
2017-12-17T13:43:01.773Z,7.40
2017-12-17T13:45:30.188Z,7.57
2017-12-17T13:47:58.606Z,7.27
2017-12-17T13:50:27.139Z,8.00
2017-12-17T13:52:55.630Z,9.17
2017-12-17T13:55:24.045Z,9.23
2017-12-17T13:57:52.594Z,8.10
2017-12-17T14:00:20.989Z,8.70
2017-12-17T14:02:49.342Z,7.63
2017-12-17T14:05:17.734Z,8.27
2017-12-17T14:07:46.098Z,8.27
2017-12-17T14:10:14.553Z,7.37
2017-12-17T14:12:42.890Z,7.50
2017-12-17T14:15:11.274Z,8.50
2017-12-17T14:17:39.766Z,8.53
2017-12-17T14:20:08.082Z,6.40
2017-12-17T14:22:36.452Z,8.50
2017-12-17T14:25:04.858Z,8.90
2017-12-17T14:27:33.234Z,7.93
2017-12-17T14:30:02.005Z,7.07
2017-12-17T14:32:30.326Z,7.90
2017-12-17T14:34:59.180Z,11.27
2017-12-17T14:37:27.818Z,12.10
2017-12-17T14:39:56.321Z,8.60
2017-12-17T14:42:24.936Z,8.83
2017-12-17T14:44:53.353Z,8.57
2017-12-17T14:47:21.736Z,10.67
2017-12-17T14:49:50.336Z,9.13
2017-12-17T14:52:18.714Z,8.70
2017-12-17T14:54:47.062Z,9.60
2017-12-17T14:57:15.450Z,9.70
2017-12-17T14:59:43.845Z,9.40
2017-12-17T15:02:12.929Z,9.27
2017-12-17T15:04:41.396Z,9.77
2017-12-17T15:07:09.762Z,6.90
2017-12-17T15:09:38.662Z,8.70
2017-12-17T15:12:07.086Z,6.40
2017-12-17T15:14:35.465Z,8.90
2017-12-17T15:17:03.877Z,8.07
2017-12-17T15:19:32.284Z,8.80
2017-12-17T15:22:00.692Z,8.00
2017-12-17T15:24:29.003Z,7.33
2017-12-17T15:26:57.357Z,8.13
2017-12-17T15:29:25.673Z,7.63
2017-12-17T15:31:54.087Z,8.17
2017-12-17T15:34:22.393Z,9.00
2017-12-17T15:36:50.941Z,7.33
2017-12-17T15:39:19.288Z,8.50
2017-12-17T15:41:47.715Z,9.53
2017-12-17T15:44:16.164Z,9.07
2017-12-17T15:46:44.802Z,8.07
2017-12-17T15:49:13.456Z,9.57
2017-12-17T15:51:41.821Z,8.60
2017-12-17T15:54:10.537Z,8.83
2017-12-17T15:56:39.327Z,9.40
2017-12-17T15:59:07.912Z,8.27
2017-12-17T16:01:36.455Z,8.70
2017-12-17T16:04:13.012Z,10.27
2017-12-17T16:06:41.844Z,7.53
2017-12-17T16:09:10.153Z,8.20
2017-12-17T16:11:38.490Z,8.80
2017-12-17T16:14:07.541Z,10.90
2017-12-17T16:16:35.947Z,8.57
2017-12-17T16:19:07.728Z,7.30
2017-12-17T16:21:37.410Z,7.67
2017-12-17T16:24:05.792Z,7.97
2017-12-17T16:26:34.176Z,8.90
2017-12-17T16:29:02.745Z,8.17
2017-12-17T16:31:31.106Z,6.67
2017-12-17T16:33:59.580Z,8.50
2017-12-17T16:36:31.396Z,7.83
2017-12-17T16:38:59.841Z,7.37
2017-12-17T16:41:28.233Z,8.30
2017-12-17T16:43:56.947Z,8.53
2017-12-17T16:46:25.282Z,8.47
2017-12-17T16:48:53.668Z,8.43
2017-12-17T16:51:22.087Z,8.43
2017-12-17T16:53:50.438Z,8.50
2017-12-17T16:56:18.754Z,8.50
2017-12-17T16:58:47.192Z,7.33
2017-12-17T17:01:15.743Z,8.60
2017-12-17T17:03:44.166Z,8.60
2017-12-17T17:06:12.669Z,8.43
2017-12-17T17:08:41.105Z,8.20
2017-12-17T17:11:10.772Z,8.87
2017-12-17T17:13:39.238Z,6.93
2017-12-17T17:16:07.566Z,8.00
2017-12-17T17:18:35.955Z,7.07
2017-12-17T17:21:04.424Z,9.00
2017-12-17T17:23:33.347Z,7.70
2017-12-17T17:26:01.670Z,8.37
2017-12-17T17:28:30.130Z,8.33
2017-12-17T17:30:58.491Z,8.47
2017-12-17T17:33:26.945Z,8.67
2017-12-17T17:35:55.442Z,8.30
2017-12-17T17:38:23.996Z,8.80
2017-12-17T17:40:52.525Z,8.23
2017-12-17T17:43:20.886Z,7.90
2017-12-17T17:45:49.249Z,8.40
2017-12-17T17:48:17.715Z,8.73
2017-12-17T17:50:46.217Z,8.10
2017-12-17T17:53:15.006Z,8.77
2017-12-17T17:55:43.504Z,8.27
2017-12-17T17:58:12.010Z,7.50
2017-12-17T18:00:40.490Z,8.13
2017-12-17T18:03:09.769Z,9.77
2017-12-17T18:05:38.395Z,9.17
2017-12-17T18:08:06.796Z,7.27
2017-12-17T18:10:35.631Z,9.00
2017-12-17T18:13:04.345Z,6.70
2017-12-17T18:15:32.812Z,8.60
2017-12-17T18:18:01.339Z,7.80
2017-12-17T18:20:30.026Z,8.03
2017-12-17T18:22:59.150Z,8.30
2017-12-17T18:25:27.639Z,9.10
2017-12-17T18:27:55.978Z,9.67
2017-12-17T18:30:25.271Z,9.33
2017-12-17T18:32:53.659Z,10.50
2017-12-17T18:35:22.023Z,9.00
2017-12-17T18:37:50.419Z,8.63
2017-12-17T18:40:18.826Z,9.23
2017-12-17T18:42:47.173Z,8.70
2017-12-17T18:45:15.546Z,8.57
2017-12-17T18:47:43.882Z,9.10
2017-12-17T18:50:12.496Z,9.13
2017-12-17T18:52:40.839Z,9.17
2017-12-17T18:55:09.184Z,7.77
2017-12-17T18:57:38.606Z,10.13
2017-12-17T19:00:07.250Z,9.60
2017-12-17T19:02:35.667Z,9.53
2017-12-17T19:05:03.995Z,10.03
2017-12-17T19:07:32.321Z,9.27
2017-12-17T19:10:00.794Z,9.00
2017-12-17T19:12:29.164Z,9.43
2017-12-17T19:14:57.496Z,11.60
2017-12-17T19:17:25.901Z,9.67
2017-12-17T19:19:55.332Z,11.00
2017-12-17T19:22:23.896Z,10.13
2017-12-17T19:24:53.580Z,9.87
2017-12-17T19:27:22.248Z,10.30
2017-12-17T19:29:50.608Z,9.20
2017-12-17T19:32:18.951Z,9.67
2017-12-17T19:34:47.444Z,10.20
2017-12-17T19:37:16.021Z,10.03
2017-12-17T19:39:44.365Z,10.27
2017-12-17T19:42:12.821Z,10.03
2017-12-17T19:44:41.247Z,9.30
2017-12-17T19:47:09.593Z,9.00
2017-12-17T19:49:38.481Z,9.97
2017-12-17T19:52:06.889Z,9.77
2017-12-17T19:54:35.285Z,9.47
2017-12-17T19:57:03.787Z,8.83
2017-12-17T19:59:32.139Z,9.60
2017-12-17T20:02:00.576Z,9.30
2017-12-17T20:04:28.912Z,8.50
2017-12-17T20:06:57.265Z,9.07
2017-12-17T20:09:25.606Z,9.80
2017-12-17T20:11:53.976Z,8.90
2017-12-17T20:14:22.417Z,9.20
2017-12-17T20:16:50.739Z,8.57
2017-12-17T20:19:19.122Z,9.40
2017-12-17T20:21:48.378Z,10.10
2017-12-17T20:24:19.594Z,9.90
2017-12-17T20:26:47.964Z,10.40
2017-12-17T20:29:21.006Z,9.50
2017-12-17T20:31:49.590Z,9.87
2017-12-17T20:34:17.938Z,9.70
2017-12-17T20:36:46.403Z,10.40
2017-12-17T20:39:14.782Z,11.90
2017-12-17T20:41:43.117Z,10.17
2017-12-17T20:44:11.604Z,11.40
2017-12-17T20:46:39.965Z,10.00
2017-12-17T20:49:09.256Z,11.40
2017-12-17T20:51:37.843Z,11.20
2017-12-17T20:54:06.460Z,11.50
2017-12-17T20:56:34.837Z,11.47
2017-12-17T20:59:03.268Z,11.87
2017-12-17T21:01:31.853Z,12.33
2017-12-17T21:04:00.733Z,10.80
2017-12-17T21:06:29.080Z,10.83
2017-12-17T21:08:58.795Z,9.90
2017-12-17T21:11:27.509Z,11.07
2017-12-17T21:13:55.963Z,10.77
2017-12-17T21:16:34.319Z,11.00
2017-12-17T21:19:03.413Z,11.47
2017-12-17T21:21:31.825Z,9.90
2017-12-17T21:24:00.148Z,9.37
2017-12-17T21:26:28.729Z,8.90
2017-12-17T21:28:57.064Z,11.50
2017-12-17T21:31:25.481Z,9.60
2017-12-17T21:33:53.869Z,10.33
2017-12-17T21:36:22.179Z,8.33
2017-12-17T21:38:50.703Z,7.97
2017-12-17T21:41:19.085Z,9.07
2017-12-17T21:43:47.474Z,9.40
2017-12-17T21:46:15.910Z,9.73
2017-12-17T21:48:44.363Z,8.20
2017-12-17T21:51:12.743Z,8.33
2017-12-17T21:53:41.100Z,9.23
2017-12-17T21:56:09.449Z,8.67
2017-12-17T21:58:37.795Z,10.23
2017-12-17T22:01:06.226Z,8.50
2017-12-17T22:03:34.563Z,9.40
2017-12-17T22:06:02.930Z,9.43
2017-12-17T22:08:31.280Z,9.33
2017-12-17T22:10:59.619Z,8.23
2017-12-17T22:13:28.003Z,8.90
2017-12-17T22:15:56.423Z,9.47
2017-12-17T22:18:24.917Z,9.30
2017-12-17T22:20:53.379Z,8.90
2017-12-17T22:23:21.715Z,8.17
2017-12-17T22:25:50.056Z,10.30
2017-12-17T22:28:18.377Z,8.90
2017-12-17T22:30:46.748Z,8.93
2017-12-17T22:33:15.155Z,9.63
2017-12-17T22:35:44.336Z,9.90
2017-12-17T22:38:12.638Z,9.40
2017-12-17T22:40:40.968Z,9.37
2017-12-17T22:43:09.284Z,9.37
2017-12-17T22:45:37.608Z,7.77
2017-12-17T22:48:05.992Z,9.47
2017-12-17T22:50:34.353Z,8.40
2017-12-17T22:53:02.692Z,7.60
2017-12-17T22:55:31.035Z,8.93
2017-12-17T22:57:59.344Z,8.30
2017-12-17T23:00:27.672Z,8.33
2017-12-17T23:02:56.121Z,8.20
2017-12-17T23:05:24.538Z,8.87
2017-12-17T23:07:52.842Z,8.43
2017-12-17T23:10:21.144Z,7.43
2017-12-17T23:12:49.493Z,8.30
2017-12-17T23:15:18.025Z,8.57
2017-12-17T23:17:46.338Z,8.10
2017-12-17T23:20:14.669Z,7.50
2017-12-17T23:22:43.276Z,7.37
2017-12-17T23:25:11.685Z,8.17
2017-12-17T23:27:40.089Z,8.87
2017-12-17T23:30:08.577Z,9.00
2017-12-17T23:32:36.892Z,6.87
2017-12-17T23:35:05.200Z,7.93
2017-12-17T23:37:33.572Z,7.27
2017-12-17T23:40:01.913Z,7.60
2017-12-17T23:42:30.278Z,7.70
2017-12-17T23:44:58.575Z,7.53
2017-12-17T23:47:26.957Z,8.33
2017-12-17T23:49:55.305Z,8.00
2017-12-17T23:52:23.634Z,7.77
2017-12-17T23:54:51.963Z,7.20
2017-12-17T23:57:20.269Z,7.13
2017-12-17T23:59:48.586Z,8.10
